Time;durP1;ratioP1;P1;durP2;ratioP2;P2;SDS_P1;SDS_P2;PMS_P1;PMS_P2;Temp;Humidity;BMP_temperature;BMP_pressure;BME280_temperature;BME280_humidity;BME280_pressure;Samples;Min_cycle;Max_cycle;Signal;HPM_P1;HPM_P2
2022/07/24 00:01:49;;;;;;;0.10;0.10;;;;;;;;;;4987092;28;20110;-76
2022/07/24 00:04:15;;;;;;;0.10;0.10;;;;;;;;;;4986924;28;20054;-77
2022/07/24 00:06:41;;;;;;;0.08;0.08;;;;;;;;;;4987090;28;20132;-77
2022/07/24 00:09:07;;;;;;;0.10;0.10;;;;;;;;;;4987168;28;20034;-78
2022/07/24 00:11:33;;;;;;;0.10;0.10;;;;;;;;;;4986617;28;20036;-77
2022/07/24 00:14:00;;;;;;;0.10;0.10;;;;;;;;;;4986743;28;20038;-77
2022/07/24 00:16:26;;;;;;;0.10;0.10;;;;;;;;;;4986568;28;20019;-76
2022/07/24 00:18:52;;;;;;;0.10;0.10;;;;;;;;;;4986853;28;20038;-75
2022/07/24 00:21:18;;;;;;;0.10;0.10;;;;;;;;;;4986587;28;20112;-77
2022/07/24 00:23:44;;;;;;;0.00;0.00;;;;;;;;;;4987007;28;20022;-76
2022/07/24 00:26:10;;;;;;;0.08;0.08;;;;;;;;;;4987290;28;20420;-77
2022/07/24 00:28:36;;;;;;;0.10;0.10;;;;;;;;;;4986465;28;20438;-78
2022/07/24 00:31:02;;;;;;;0.10;0.10;;;;;;;;;;4987206;28;20042;-76
2022/07/24 00:33:28;;;;;;;0.10;0.10;;;;;;;;;;4987869;28;20418;-77
2022/07/24 00:35:54;;;;;;;0.10;0.10;;;;;;;;;;4986598;28;20034;-76
2022/07/24 00:38:20;;;;;;;0.10;0.10;;;;;;;;;;4986406;28;20038;-75
2022/07/24 00:40:46;;;;;;;0.00;0.00;;;;;;;;;;4986682;28;20454;-78
2022/07/24 00:43:12;;;;;;;0.10;0.10;;;;;;;;;;4986941;28;20034;-77
2022/07/24 00:45:39;;;;;;;0.10;0.10;;;;;;;;;;4986463;28;20494;-77
2022/07/24 00:48:05;;;;;;;0.00;0.00;;;;;;;;;;4986552;28;20062;-80
2022/07/24 00:50:31;;;;;;;0.10;0.10;;;;;;;;;;4986348;28;20510;-80
2022/07/24 00:52:58;;;;;;;0.10;0.10;;;;;;;;;;4986073;28;20038;-80
2022/07/24 00:55:24;;;;;;;0.10;0.10;;;;;;;;;;4985950;28;20033;-79
2022/07/24 00:57:50;;;;;;;0.10;0.10;;;;;;;;;;4986998;28;20497;-80
2022/07/24 01:00:17;;;;;;;0.10;0.10;;;;;;;;;;4986317;28;20394;-81
2022/07/24 01:02:44;;;;;;;0.10;0.10;;;;;;;;;;4986310;28;20023;-76
2022/07/24 01:05:10;;;;;;;0.10;0.10;;;;;;;;;;4986757;28;20029;-77
2022/07/24 01:07:37;;;;;;;0.10;0.10;;;;;;;;;;4986113;28;20073;-77
2022/07/24 01:10:03;;;;;;;0.10;0.10;;;;;;;;;;4986076;28;20030;-78
2022/07/24 01:12:31;;;;;;;0.10;0.10;;;;;;;;;;4986289;28;20529;-79
2022/07/24 01:14:57;;;;;;;0.10;0.10;;;;;;;;;;4986497;28;20046;-79
2022/07/24 01:17:23;;;;;;;0.10;0.10;;;;;;;;;;4985344;28;20449;-76
2022/07/24 01:19:50;;;;;;;0.10;0.10;;;;;;;;;;4985515;28;20032;-79
2022/07/24 01:22:16;;;;;;;0.10;0.10;;;;;;;;;;4985776;28;20022;-79
2022/07/24 01:24:42;;;;;;;0.10;0.10;;;;;;;;;;4986223;28;20022;-78
2022/07/24 01:27:08;;;;;;;0.10;0.10;;;;;;;;;;4985910;28;20026;-79
2022/07/24 01:29:34;;;;;;;0.10;0.10;;;;;;;;;;4985778;28;20029;-80
2022/07/24 01:32:00;;;;;;;0.10;0.10;;;;;;;;;;4985505;28;20023;-79
2022/07/24 01:34:26;;;;;;;0.10;0.10;;;;;;;;;;4986875;28;20525;-78
2022/07/24 01:36:52;;;;;;;0.10;0.10;;;;;;;;;;4986181;28;20030;-80
2022/07/24 01:39:18;;;;;;;0.10;0.10;;;;;;;;;;4985525;28;20105;-79
2022/07/24 01:41:44;;;;;;;0.10;0.10;;;;;;;;;;4984162;28;20779;-76
2022/07/24 01:44:10;;;;;;;0.10;0.10;;;;;;;;;;4985824;28;20026;-76
2022/07/24 01:46:36;;;;;;;0.10;0.10;;;;;;;;;;4985241;28;20041;-75
2022/07/24 01:49:03;;;;;;;0.00;0.00;;;;;;;;;;4985726;28;20030;-77
2022/07/24 01:51:29;;;;;;;0.10;0.10;;;;;;;;;;4985609;28;20026;-76
2022/07/24 01:53:55;;;;;;;0.10;0.10;;;;;;;;;;4985356;28;20093;-75
2022/07/24 01:56:21;;;;;;;0.10;0.10;;;;;;;;;;4985257;28;20034;-75
2022/07/24 01:58:47;;;;;;;0.10;0.10;;;;;;;;;;4985363;28;20054;-77
2022/07/24 02:01:13;;;;;;;0.10;0.10;;;;;;;;;;4985411;28;20070;-76
2022/07/24 02:03:39;;;;;;;0.10;0.10;;;;;;;;;;4986005;28;20029;-76
2022/07/24 02:06:05;;;;;;;0.10;0.10;;;;;;;;;;4990600;28;20109;-77
2022/07/24 02:08:31;;;;;;;0.10;0.10;;;;;;;;;;4991498;28;20030;-80
2022/07/24 02:10:57;;;;;;;0.10;0.10;;;;;;;;;;4991400;28;20022;-80
2022/07/24 02:13:25;;;;;;;0.10;0.10;;;;;;;;;;4988098;28;20397;-76
2022/07/24 02:15:51;;;;;;;0.10;0.10;;;;;;;;;;4983566;28;20384;-76
2022/07/24 02:18:17;;;;;;;0.10;0.10;;;;;;;;;;4985628;28;20019;-79
2022/07/24 02:20:43;;;;;;;0.10;0.10;;;;;;;;;;4985206;28;20042;-76
2022/07/24 02:23:09;;;;;;;0.10;0.10;;;;;;;;;;5000833;28;20027;-80
2022/07/24 02:25:35;;;;;;;0.10;0.10;;;;;;;;;;4984727;28;20037;-79
2022/07/24 02:28:01;;;;;;;0.10;0.10;;;;;;;;;;4984089;28;20030;-79
2022/07/24 02:30:27;;;;;;;0.10;0.10;;;;;;;;;;4988534;28;20057;-79
2022/07/24 02:32:53;;;;;;;0.10;0.10;;;;;;;;;;4988472;28;20112;-78
2022/07/24 02:35:19;;;;;;;0.10;0.10;;;;;;;;;;4988384;28;20468;-76
2022/07/24 02:37:45;;;;;;;0.10;0.10;;;;;;;;;;4988231;28;20144;-79
2022/07/24 02:40:12;;;;;;;0.10;0.10;;;;;;;;;;4988916;28;20042;-76
2022/07/24 02:42:38;;;;;;;0.10;0.10;;;;;;;;;;4988974;28;20030;-80
2022/07/24 02:45:05;;;;;;;0.10;0.10;;;;;;;;;;4988532;28;20606;-80
2022/07/24 02:47:31;;;;;;;0.10;0.10;;;;;;;;;;4988194;28;20257;-76
2022/07/24 02:49:57;;;;;;;0.10;0.10;;;;;;;;;;4988313;28;20101;-80
2022/07/24 02:52:23;;;;;;;0.10;0.10;;;;;;;;;;4989323;28;20073;-79
2022/07/24 02:54:49;;;;;;;0.10;0.10;;;;;;;;;;4988490;28;20398;-77
2022/07/24 02:57:15;;;;;;;0.10;0.10;;;;;;;;;;4988211;28;20034;-75
2022/07/24 02:59:41;;;;;;;0.10;0.10;;;;;;;;;;4988577;28;20026;-77
2022/07/24 03:02:07;;;;;;;0.10;0.10;;;;;;;;;;4988207;28;20498;-77
2022/07/24 03:04:33;;;;;;;0.10;0.10;;;;;;;;;;4988550;28;20326;-77
2022/07/24 03:06:59;;;;;;;0.05;0.05;;;;;;;;;;4987954;28;20513;-78
2022/07/24 03:09:25;;;;;;;0.10;0.10;;;;;;;;;;4989242;28;20157;-76
2022/07/24 03:11:51;;;;;;;0.10;0.10;;;;;;;;;;4988068;28;20038;-76
2022/07/24 03:14:17;;;;;;;0.10;0.10;;;;;;;;;;4988109;28;20038;-77
2022/07/24 03:16:43;;;;;;;0.10;0.10;;;;;;;;;;4988388;28;20030;-76
2022/07/24 03:19:09;;;;;;;0.10;0.10;;;;;;;;;;4988441;28;20041;-79
2022/07/24 03:21:35;;;;;;;0.10;0.10;;;;;;;;;;4987409;28;20026;-76
2022/07/24 03:24:01;;;;;;;0.00;0.00;;;;;;;;;;4988078;28;20136;-78
2022/07/24 03:26:27;;;;;;;0.00;0.00;;;;;;;;;;4987705;28;20031;-76
2022/07/24 03:28:53;;;;;;;0.10;0.10;;;;;;;;;;4987976;28;20406;-77
2022/07/24 03:31:19;;;;;;;0.10;0.10;;;;;;;;;;4987220;28;20114;-77
2022/07/24 03:33:45;;;;;;;0.10;0.10;;;;;;;;;;4987976;28;20518;-75
2022/07/24 03:36:11;;;;;;;0.10;0.10;;;;;;;;;;4988306;28;20030;-77
2022/07/24 03:38:37;;;;;;;0.10;0.10;;;;;;;;;;4987966;28;20483;-76
2022/07/24 03:41:03;;;;;;;0.10;0.10;;;;;;;;;;4986969;28;20169;-76
2022/07/24 03:43:29;;;;;;;0.10;0.10;;;;;;;;;;4987437;28;20026;-76
2022/07/24 03:45:55;;;;;;;0.08;0.08;;;;;;;;;;4987497;28;20030;-76
2022/07/24 03:48:21;;;;;;;0.10;0.10;;;;;;;;;;4987599;28;20029;-77
2022/07/24 03:50:47;;;;;;;0.10;0.10;;;;;;;;;;4987806;28;20069;-75
2022/07/24 03:53:13;;;;;;;0.10;0.10;;;;;;;;;;4987650;28;20095;-76
2022/07/24 03:55:39;;;;;;;0.10;0.10;;;;;;;;;;4987771;28;20037;-77
2022/07/24 03:58:05;;;;;;;0.00;0.00;;;;;;;;;;4987737;28;20023;-76
2022/07/24 04:00:31;;;;;;;0.10;0.10;;;;;;;;;;4987276;28;20125;-76
2022/07/24 04:02:57;;;;;;;0.10;0.10;;;;;;;;;;4987372;28;20117;-76
2022/07/24 04:05:23;;;;;;;0.00;0.00;;;;;;;;;;4987058;28;20109;-79
2022/07/24 04:07:49;;;;;;;0.10;0.10;;;;;;;;;;4987109;28;20494;-77
2022/07/24 04:10:15;;;;;;;0.10;0.10;;;;;;;;;;4988074;28;20109;-78
2022/07/24 04:12:41;;;;;;;0.10;0.10;;;;;;;;;;4987563;28;20026;-75
2022/07/24 04:15:08;;;;;;;0.10;0.10;;;;;;;;;;4987331;28;20045;-78
2022/07/24 04:17:37;;;;;;;0.10;0.10;;;;;;;;;;4986467;28;20030;-77
2022/07/24 04:20:03;;;;;;;0.10;0.10;;;;;;;;;;4986802;28;20118;-75
2022/07/24 04:22:29;;;;;;;0.10;0.10;;;;;;;;;;4986994;28;20197;-76
2022/07/24 04:24:55;;;;;;;0.10;0.10;;;;;;;;;;4986910;28;20102;-76
2022/07/24 04:27:21;;;;;;;0.10;0.10;;;;;;;;;;4986777;28;20040;-77
2022/07/24 04:29:47;;;;;;;0.10;0.10;;;;;;;;;;4986865;28;20080;-77
2022/07/24 04:32:13;;;;;;;0.10;0.10;;;;;;;;;;4987351;28;20066;-75
2022/07/24 04:34:39;;;;;;;0.10;0.10;;;;;;;;;;4986825;28;20038;-76
2022/07/24 04:37:05;;;;;;;0.10;0.10;;;;;;;;;;4986683;28;20749;-77
2022/07/24 04:39:31;;;;;;;0.10;0.10;;;;;;;;;;4986433;28;20080;-78
2022/07/24 04:41:57;;;;;;;0.10;0.10;;;;;;;;;;4986444;28;20061;-75
2022/07/24 04:44:23;;;;;;;0.10;0.10;;;;;;;;;;4986660;28;20049;-76
2022/07/24 04:46:49;;;;;;;0.10;0.10;;;;;;;;;;4986080;28;20034;-78
2022/07/24 04:49:15;;;;;;;0.10;0.10;;;;;;;;;;4986309;28;20497;-78
2022/07/24 04:51:41;;;;;;;0.10;0.10;;;;;;;;;;4986614;28;20026;-77
2022/07/24 04:54:07;;;;;;;0.10;0.10;;;;;;;;;;4986048;28;20277;-77
2022/07/24 04:56:33;;;;;;;0.10;0.10;;;;;;;;;;4985925;28;20077;-80
2022/07/24 04:59:01;;;;;;;0.10;0.10;;;;;;;;;;4986896;28;20524;-77
2022/07/24 05:01:27;;;;;;;0.10;0.10;;;;;;;;;;4986451;28;20038;-78
2022/07/24 05:03:56;;;;;;;0.10;0.10;;;;;;;;;;4985885;28;20494;-77
2022/07/24 05:06:22;;;;;;;0.10;0.10;;;;;;;;;;4985054;28;20058;-80
2022/07/24 05:08:48;;;;;;;0.10;0.10;;;;;;;;;;4988111;28;20034;-77
2022/07/24 05:11:14;;;;;;;0.10;0.10;;;;;;;;;;4986848;28;20038;-78
2022/07/24 05:13:40;;;;;;;0.10;0.10;;;;;;;;;;4986441;28;20050;-75
2022/07/24 05:16:06;;;;;;;0.10;0.10;;;;;;;;;;4985930;28;20035;-78
2022/07/24 05:18:32;;;;;;;0.08;0.08;;;;;;;;;;4985916;28;20034;-79
2022/07/24 05:20:58;;;;;;;0.00;0.00;;;;;;;;;;4985892;28;20030;-79
2022/07/24 05:23:24;;;;;;;0.10;0.10;;;;;;;;;;4985403;28;20030;-78
2022/07/24 05:25:50;;;;;;;0.10;0.10;;;;;;;;;;4986585;28;20506;-78
2022/07/24 05:28:17;;;;;;;0.20;0.20;;;;;;;;;;4986407;28;20036;-77
2022/07/24 05:30:43;;;;;;;0.10;0.10;;;;;;;;;;4986031;28;20034;-77
2022/07/24 05:33:09;;;;;;;1.90;1.85;;;;;;;;;;4986315;28;20030;-78
2022/07/24 05:35:35;;;;;;;0.10;0.10;;;;;;;;;;4986047;28;20022;-78
2022/07/24 05:38:01;;;;;;;0.10;0.10;;;;;;;;;;4986287;28;20221;-78
2022/07/24 05:40:27;;;;;;;0.10;0.10;;;;;;;;;;4985627;28;20124;-80
2022/07/24 05:42:53;;;;;;;0.10;0.10;;;;;;;;;;4985775;28;20505;-78
2022/07/24 05:45:19;;;;;;;0.10;0.10;;;;;;;;;;4985725;28;20030;-81
2022/07/24 05:47:45;;;;;;;0.13;0.13;;;;;;;;;;4985853;28;20022;-80
2022/07/24 05:50:13;;;;;;;0.10;0.10;;;;;;;;;;4986470;28;20124;-80
2022/07/24 05:52:40;;;;;;;0.10;0.10;;;;;;;;;;4985951;28;20486;-79
2022/07/24 05:55:06;;;;;;;0.10;0.10;;;;;;;;;;4983525;28;20148;-79
2022/07/24 05:57:32;;;;;;;0.10;0.10;;;;;;;;;;4985031;28;20771;-81
2022/07/24 05:59:58;;;;;;;0.10;0.10;;;;;;;;;;4985509;28;20041;-81
2022/07/24 06:02:24;;;;;;;0.10;0.10;;;;;;;;;;4985011;28;20031;-81
2022/07/24 06:04:50;;;;;;;0.10;0.10;;;;;;;;;;4989313;28;20137;-81
2022/07/24 06:07:16;;;;;;;0.05;0.05;;;;;;;;;;5003825;28;20406;-82
2022/07/24 06:09:42;;;;;;;0.08;0.08;;;;;;;;;;4989785;28;20031;-82
2022/07/24 06:12:08;;;;;;;0.10;0.10;;;;;;;;;;4988016;28;20049;-82
2022/07/24 06:14:34;;;;;;;0.10;0.10;;;;;;;;;;5004030;28;20510;-80
2022/07/24 06:17:00;;;;;;;0.05;0.05;;;;;;;;;;4989998;28;20402;-80
2022/07/24 06:19:27;;;;;;;0.10;0.10;;;;;;;;;;4988999;28;20041;-81
2022/07/24 06:21:53;;;;;;;0.10;0.10;;;;;;;;;;4989178;28;20030;-80
2022/07/24 06:24:19;;;;;;;0.10;0.10;;;;;;;;;;4988941;28;20030;-82
2022/07/24 06:26:45;;;;;;;0.10;0.10;;;;;;;;;;4988993;28;20022;-80
2022/07/24 06:29:11;;;;;;;0.10;0.10;;;;;;;;;;4989896;28;20045;-80
2022/07/24 06:31:37;;;;;;;0.08;0.08;;;;;;;;;;4989023;28;20034;-81
2022/07/24 06:34:03;;;;;;;0.10;0.10;;;;;;;;;;4989030;28;20030;-80
2022/07/24 06:36:30;;;;;;;0.20;0.20;;;;;;;;;;4990472;28;20109;-79
2022/07/24 06:38:55;;;;;;;0.08;0.08;;;;;;;;;;4989911;28;20030;-80
2022/07/24 06:41:21;;;;;;;0.10;0.10;;;;;;;;;;4994228;28;20040;-80
2022/07/24 06:43:47;;;;;;;0.10;0.10;;;;;;;;;;4994966;28;20394;-80
2022/07/24 06:46:13;;;;;;;0.10;0.10;;;;;;;;;;4993740;28;20052;-80
2022/07/24 06:48:40;;;;;;;0.10;0.10;;;;;;;;;;4995385;28;20510;-77
2022/07/24 06:51:06;;;;;;;0.10;0.10;;;;;;;;;;4994946;28;20441;-80
2022/07/24 06:53:32;;;;;;;0.10;0.10;;;;;;;;;;4994572;28;20030;-79
2022/07/24 06:55:58;;;;;;;0.10;0.10;;;;;;;;;;4977881;28;20030;-78
2022/07/24 06:58:24;;;;;;;0.10;0.10;;;;;;;;;;4983231;28;20077;-80
2022/07/24 07:00:50;;;;;;;0.10;0.10;;;;;;;;;;4994635;28;20030;-79
2022/07/24 07:03:17;;;;;;;0.10;0.10;;;;;;;;;;4993834;28;20033;-82
2022/07/24 07:05:43;;;;;;;0.10;0.10;;;;;;;;;;4993530;28;20022;-79
2022/07/24 07:08:09;;;;;;;0.00;0.00;;;;;;;;;;4994561;28;20038;-81
2022/07/24 07:10:35;;;;;;;0.10;0.10;;;;;;;;;;4994304;28;20525;-79
2022/07/24 07:13:01;;;;;;;0.10;0.10;;;;;;;;;;4993995;28;20022;-82
2022/07/24 07:15:27;;;;;;;0.10;0.10;;;;;;;;;;4993036;28;20529;-83
2022/07/24 07:17:53;;;;;;;0.10;0.10;;;;;;;;;;4994448;28;20035;-81
2022/07/24 07:20:19;;;;;;;0.10;0.10;;;;;;;;;;4993747;28;20030;-79
2022/07/24 07:22:45;;;;;;;0.10;0.10;;;;;;;;;;4994490;28;20058;-82
2022/07/24 07:25:11;;;;;;;0.10;0.10;;;;;;;;;;4993430;28;20125;-79
2022/07/24 07:27:39;;;;;;;0.10;0.10;;;;;;;;;;4994105;28;20023;-79
2022/07/24 07:30:05;;;;;;;0.10;0.10;;;;;;;;;;4994306;28;20064;-79
2022/07/24 07:32:31;;;;;;;0.10;0.10;;;;;;;;;;4993310;28;20034;-79
2022/07/24 07:34:58;;;;;;;0.10;0.10;;;;;;;;;;4993705;28;20038;-80
2022/07/24 07:37:24;;;;;;;0.10;0.10;;;;;;;;;;4993768;28;20101;-80
2022/07/24 07:39:50;;;;;;;0.10;0.10;;;;;;;;;;4994258;28;20031;-80
2022/07/24 07:42:16;;;;;;;0.10;0.10;;;;;;;;;;4993923;28;20030;-81
2022/07/24 07:44:42;;;;;;;0.00;0.00;;;;;;;;;;4994394;28;20092;-82
2022/07/24 07:47:08;;;;;;;0.10;0.10;;;;;;;;;;4994233;28;20105;-83
2022/07/24 07:49:34;;;;;;;0.10;0.10;;;;;;;;;;4993292;28;20031;-84
2022/07/24 07:52:01;;;;;;;0.10;0.10;;;;;;;;;;5008921;28;20030;-80
2022/07/24 07:54:27;;;;;;;0.10;0.10;;;;;;;;;;4993562;28;20417;-80
2022/07/24 07:56:53;;;;;;;0.10;0.10;;;;;;;;;;4993980;28;20104;-83
2022/07/24 07:59:19;;;;;;;0.10;0.10;;;;;;;;;;4983335;28;20096;-82
2022/07/24 08:01:45;;;;;;;0.10;0.10;;;;;;;;;;4992862;28;20058;-80
2022/07/24 08:04:11;;;;;;;0.10;0.10;;;;;;;;;;4994061;28;20026;-82
2022/07/24 08:06:37;;;;;;;0.10;0.10;;;;;;;;;;4994302;28;20029;-82
2022/07/24 08:09:03;;;;;;;0.10;0.10;;;;;;;;;;4994270;28;20049;-83
2022/07/24 08:11:29;;;;;;;0.10;0.10;;;;;;;;;;4993005;28;20427;-82
2022/07/24 08:13:55;;;;;;;0.10;0.10;;;;;;;;;;4992818;28;20050;-79
2022/07/24 08:16:22;;;;;;;0.10;0.10;;;;;;;;;;4986348;28;20039;-79
2022/07/24 08:18:48;;;;;;;0.10;0.10;;;;;;;;;;4982438;28;20141;-78
2022/07/24 08:21:15;;;;;;;0.10;0.10;;;;;;;;;;4982227;28;20518;-79
2022/07/24 08:23:41;;;;;;;0.10;0.10;;;;;;;;;;4981302;28;20568;-82
2022/07/24 08:26:07;;;;;;;0.10;0.10;;;;;;;;;;4981124;28;20545;-79
2022/07/24 08:28:33;;;;;;;0.10;0.10;;;;;;;;;;4980265;28;20026;-78
2022/07/24 08:30:59;;;;;;;0.10;0.10;;;;;;;;;;4982641;28;20038;-85
2022/07/24 08:33:25;;;;;;;0.10;0.10;;;;;;;;;;4980774;28;20924;-84
2022/07/24 08:35:51;;;;;;;0.10;0.10;;;;;;;;;;4980090;28;20030;-80
2022/07/24 08:38:17;;;;;;;0.10;0.10;;;;;;;;;;4992426;28;20376;-81
2022/07/24 08:40:43;;;;;;;0.10;0.10;;;;;;;;;;4993107;28;20035;-76
2022/07/24 08:43:10;;;;;;;0.10;0.10;;;;;;;;;;4993274;28;20022;-81
2022/07/24 08:45:37;;;;;;;0.10;0.10;;;;;;;;;;4992722;28;20438;-79
2022/07/24 08:48:03;;;;;;;0.10;0.10;;;;;;;;;;4992861;28;20089;-82
2022/07/24 08:50:30;;;;;;;0.10;0.10;;;;;;;;;;4992630;28;20030;-81
2022/07/24 08:52:56;;;;;;;0.10;0.10;;;;;;;;;;4985324;28;20386;-84
2022/07/24 08:55:23;;;;;;;0.10;0.10;;;;;;;;;;4980895;28;20101;-82
2022/07/24 08:57:49;;;;;;;0.10;0.10;;;;;;;;;;4980757;28;20098;-80
2022/07/24 09:00:15;;;;;;;0.10;0.10;;;;;;;;;;4989139;28;20117;-80
2022/07/24 09:02:41;;;;;;;0.10;0.10;;;;;;;;;;4988629;28;20084;-82
2022/07/24 09:05:08;;;;;;;0.10;0.10;;;;;;;;;;4984578;28;20053;-81
2022/07/24 09:07:34;;;;;;;0.10;0.10;;;;;;;;;;4991961;28;20023;-81
2022/07/24 09:10:00;;;;;;;0.10;0.10;;;;;;;;;;4992449;28;20026;-79
2022/07/24 09:12:26;;;;;;;0.10;0.10;;;;;;;;;;4992237;28;20026;-81
2022/07/24 09:14:52;;;;;;;0.10;0.10;;;;;;;;;;4991573;28;20046;-81
2022/07/24 09:17:19;;;;;;;0.10;0.10;;;;;;;;;;4985716;28;20078;-78
2022/07/24 09:19:56;;;;;;;0.10;0.10;;;;;;;;;;4987561;28;20509;-80
2022/07/24 09:22:32;;;;;;;0.10;0.10;;;;;;;;;;4992182;28;20041;-80
2022/07/24 09:25:06;;;;;;;0.10;0.10;;;;;;;;;;4988256;28;20498;-79
2022/07/24 09:27:33;;;;;;;0.10;0.10;;;;;;;;;;4977740;28;20380;-78
2022/07/24 09:29:59;;;;;;;0.10;0.10;;;;;;;;;;4979431;28;20026;-77
2022/07/24 09:32:25;;;;;;;0.10;0.10;;;;;;;;;;4972482;28;20081;-81
2022/07/24 09:34:53;;;;;;;0.10;0.10;;;;;;;;;;4979393;28;20034;-79
2022/07/24 09:37:19;;;;;;;0.10;0.10;;;;;;;;;;4988015;28;20110;-80
2022/07/24 09:39:45;;;;;;;0.10;0.10;;;;;;;;;;4971959;28;20402;-82
2022/07/24 09:42:11;;;;;;;0.10;0.10;;;;;;;;;;4978792;28;20100;-82
2022/07/24 09:44:38;;;;;;;0.10;0.10;;;;;;;;;;4991154;28;20030;-81
2022/07/24 09:47:05;;;;;;;0.10;0.10;;;;;;;;;;4991230;28;20030;-82
2022/07/24 09:49:32;;;;;;;0.10;0.10;;;;;;;;;;4991542;28;20033;-83
2022/07/24 09:52:11;;;;;;;0.10;0.10;;;;;;;;;;4987906;28;20363;-81
2022/07/24 09:54:38;;;;;;;0.00;0.00;;;;;;;;;;4986373;28;20096;-84
2022/07/24 09:57:17;;;;;;;0.10;0.10;;;;;;;;;;4991391;28;20020;-81
2022/07/24 09:59:45;;;;;;;0.10;0.10;;;;;;;;;;4980113;28;20054;-80
2022/07/24 10:02:13;;;;;;;0.10;0.10;;;;;;;;;;4972703;28;20053;-81
2022/07/24 10:04:41;;;;;;;0.05;0.05;;;;;;;;;;4987826;28;20113;-80
2022/07/24 10:07:10;;;;;;;0.10;0.10;;;;;;;;;;4990894;28;20105;-81
2022/07/24 10:09:36;;;;;;;0.10;0.10;;;;;;;;;;4982898;28;20025;-82
2022/07/24 10:12:04;;;;;;;0.10;0.10;;;;;;;;;;4983169;28;20273;-81
2022/07/24 10:14:30;;;;;;;0.10;0.10;;;;;;;;;;4990397;28;20117;-82
2022/07/24 10:17:06;;;;;;;67.13;61.83;;;;;;;;;;4991831;28;20073;-81
2022/07/24 10:19:39;;;;;;;0.10;0.10;;;;;;;;;;4991408;28;20033;-80
2022/07/24 10:22:08;;;;;;;0.10;0.10;;;;;;;;;;4991850;28;20088;-80
2022/07/24 10:24:43;;;;;;;0.10;0.10;;;;;;;;;;4982148;28;20035;-78
2022/07/24 10:27:15;;;;;;;0.10;0.10;;;;;;;;;;4979213;28;20030;-77
2022/07/24 10:29:42;;;;;;;0.10;0.10;;;;;;;;;;4991905;28;20026;-80
2022/07/24 10:32:10;;;;;;;0.10;0.10;;;;;;;;;;4991025;28;20034;-81
2022/07/24 10:34:39;;;;;;;0.10;0.10;;;;;;;;;;4988106;28;20035;-79
2022/07/24 10:37:23;;;;;;;0.10;0.10;;;;;;;;;;4977914;28;20060;-78
2022/07/24 10:39:49;;;;;;;0.10;0.10;;;;;;;;;;4986602;28;20120;-79
2022/07/24 10:42:15;;;;;;;0.10;0.10;;;;;;;;;;4990819;28;20054;-77
2022/07/24 10:44:41;;;;;;;0.10;0.10;;;;;;;;;;4991673;28;20033;-76
2022/07/24 10:47:09;;;;;;;0.10;0.10;;;;;;;;;;4991475;28;20483;-80
2022/07/24 10:49:35;;;;;;;0.10;0.10;;;;;;;;;;4975430;28;20043;-78
2022/07/24 10:52:01;;;;;;;0.10;0.10;;;;;;;;;;4987165;28;20157;-79
2022/07/24 10:54:27;;;;;;;0.10;0.10;;;;;;;;;;4976613;28;20519;-81
2022/07/24 10:56:53;;;;;;;0.10;0.10;;;;;;;;;;4974960;28;20054;-79
2022/07/24 10:59:33;;;;;;;0.10;0.10;;;;;;;;;;4977600;28;20081;-80
2022/07/24 11:02:19;;;;;;;0.10;0.10;;;;;;;;;;4975429;28;20054;-81
2022/07/24 11:04:45;;;;;;;;;;;;;;;;;;4975866;28;20027;-80
2022/07/24 11:07:12;;;;;;;;;;;;;;;;;;4976032;28;19910;-79
2022/07/24 11:09:57;;;;;;;0.10;0.10;;;;;;;;;;4977599;28;19913;-79
2022/07/24 11:12:26;;;;;;;0.10;0.10;;;;;;;;;;4979065;28;20027;-80
2022/07/24 11:14:52;;;;;;;0.10;0.10;;;;;;;;;;4984970;28;20090;-78
2022/07/24 11:17:40;;;;;;;0.10;0.10;;;;;;;;;;4994187;28;20030;-78
2022/07/24 11:20:10;;;;;;;0.10;0.10;;;;;;;;;;4979432;28;20019;-80
2022/07/24 11:22:40;;;;;;;0.10;0.10;;;;;;;;;;4983386;28;20030;-79
2022/07/24 11:25:10;;;;;;;0.10;0.10;;;;;;;;;;4984989;28;20037;-80
2022/07/24 11:27:47;;;;;;;0.10;0.10;;;;;;;;;;4988227;28;20025;-78
2022/07/24 11:30:13;;;;;;;0.10;0.10;;;;;;;;;;4984999;28;20510;-80
2022/07/24 11:32:40;;;;;;;0.10;0.10;;;;;;;;;;4979960;28;20031;-78
2022/07/24 11:35:08;;;;;;;0.10;0.10;;;;;;;;;;4990115;28;20038;-77
2022/07/24 11:37:34;;;;;;;0.10;0.10;;;;;;;;;;4979626;28;20025;-77
2022/07/24 11:40:00;;;;;;;0.10;0.10;;;;;;;;;;4985077;28;20090;-78
2022/07/24 11:42:26;;;;;;;0.10;0.10;;;;;;;;;;4985509;28;20077;-79
2022/07/24 11:44:52;;;;;;;0.10;0.10;;;;;;;;;;4977858;28;20027;-77
2022/07/24 11:47:23;;;;;;;0.10;0.10;;;;;;;;;;4985082;28;20092;-77
2022/07/24 11:49:49;;;;;;;0.10;0.10;;;;;;;;;;4981646;28;20390;-78
2022/07/24 11:52:19;;;;;;;0.10;0.10;;;;;;;;;;4982970;28;20023;-79
2022/07/24 11:54:46;;;;;;;0.10;0.10;;;;;;;;;;4975522;28;20394;-78
2022/07/24 11:57:17;;;;;;;0.10;0.10;;;;;;;;;;4986846;28;20034;-81
2022/07/24 11:59:43;;;;;;;0.30;0.30;;;;;;;;;;4985463;28;20041;-77
2022/07/24 12:02:10;;;;;;;0.10;0.10;;;;;;;;;;4989972;28;20435;-80
2022/07/24 12:04:37;;;;;;;0.10;0.10;;;;;;;;;;4981861;28;20038;-79
2022/07/24 12:07:11;;;;;;;0.10;0.10;;;;;;;;;;4981516;28;20034;-79
2022/07/24 12:10:03;;;;;;;0.10;0.10;;;;;;;;;;4984384;28;20027;-78
2022/07/24 12:12:31;;;;;;;0.15;0.15;;;;;;;;;;4984629;28;20046;-77
2022/07/24 12:15:08;;;;;;;0.10;0.10;;;;;;;;;;4987225;28;20034;-78
2022/07/24 12:17:52;;;;;;;0.10;0.10;;;;;;;;;;4980881;28;20029;-80
2022/07/24 12:20:20;;;;;;;0.10;0.10;;;;;;;;;;4983883;28;20026;-78
2022/07/24 12:22:47;;;;;;;0.10;0.10;;;;;;;;;;4984948;28;20030;-78
2022/07/24 12:25:14;;;;;;;0.10;0.10;;;;;;;;;;4980164;28;20039;-76
2022/07/24 12:27:44;;;;;;;0.10;0.10;;;;;;;;;;4979461;28;20023;-78
2022/07/24 12:30:19;;;;;;;0.10;0.10;;;;;;;;;;4988833;28;20106;-80
2022/07/24 12:33:00;;;;;;;0.10;0.10;;;;;;;;;;4977698;28;20039;-79
2022/07/24 12:35:27;;;;;;;0.10;0.10;;;;;;;;;;4976872;28;20034;-80
2022/07/24 12:37:54;;;;;;;0.03;0.03;;;;;;;;;;4984661;28;20042;-79
2022/07/24 12:40:33;;;;;;;0.10;0.10;;;;;;;;;;4984037;28;20018;-79
2022/07/24 12:43:01;;;;;;;0.10;0.10;;;;;;;;;;4971089;28;20027;-81
2022/07/24 12:45:27;;;;;;;0.10;0.10;;;;;;;;;;4973324;28;20031;-81
2022/07/24 12:48:11;;;;;;;0.10;0.10;;;;;;;;;;4973347;28;20019;-82
2022/07/24 12:50:38;;;;;;;0.10;0.10;;;;;;;;;;4972855;28;20059;-82
2022/07/24 12:53:04;;;;;;;0.10;0.10;;;;;;;;;;4978978;28;20050;-79
2022/07/24 12:55:30;;;;;;;0.10;0.10;;;;;;;;;;4973223;28;20468;-81
2022/07/24 12:58:03;;;;;;;0.10;0.10;;;;;;;;;;4972787;28;20110;-76
2022/07/24 13:00:30;;;;;;;0.05;0.05;;;;;;;;;;4972870;28;20046;-79
2022/07/24 13:02:56;;;;;;;0.10;0.10;;;;;;;;;;4972952;28;20031;-80
2022/07/24 13:05:38;;;;;;;0.13;0.13;;;;;;;;;;4972924;28;20033;-82
2022/07/24 13:08:05;;;;;;;0.10;0.10;;;;;;;;;;4973130;28;20034;-82
2022/07/24 13:10:31;;;;;;;0.10;0.10;;;;;;;;;;4972754;28;20071;-84
2022/07/24 13:12:56;;;;;;;0.10;0.10;;;;;;;;;;4972954;28;20038;-81
2022/07/24 13:15:22;;;;;;;0.10;0.10;;;;;;;;;;4972759;28;20042;-82
2022/07/24 13:17:48;;;;;;;0.10;0.10;;;;;;;;;;4972973;28;20030;-83
2022/07/24 13:20:14;;;;;;;0.10;0.10;;;;;;;;;;4972720;28;20027;-85
2022/07/24 13:22:41;;;;;;;0.10;0.10;;;;;;;;;;4973168;28;20102;-83
2022/07/24 13:25:07;;;;;;;0.10;0.10;;;;;;;;;;4971526;28;20154;-84
2022/07/24 13:27:33;;;;;;;0.10;0.10;;;;;;;;;;4972634;28;20223;-82
2022/07/24 13:29:59;;;;;;;0.10;0.10;;;;;;;;;;4972848;28;20027;-86
2022/07/24 13:32:25;;;;;;;0.20;0.20;;;;;;;;;;4972297;28;20056;-81
2022/07/24 13:34:51;;;;;;;0.10;0.10;;;;;;;;;;4977643;28;20042;-81
2022/07/24 13:37:18;;;;;;;0.10;0.10;;;;;;;;;;4975307;28;20022;-82
2022/07/24 13:39:44;;;;;;;0.10;0.10;;;;;;;;;;4991832;28;20081;-81
2022/07/24 13:42:10;;;;;;;0.10;0.10;;;;;;;;;;4992067;28;20030;-82
2022/07/24 13:44:36;;;;;;;0.10;0.10;;;;;;;;;;4991569;28;20030;-80
2022/07/24 13:47:03;;;;;;;0.10;0.10;;;;;;;;;;4992008;28;20036;-80
2022/07/24 13:49:29;;;;;;;0.10;0.10;;;;;;;;;;4991708;28;20034;-82
2022/07/24 13:51:55;;;;;;;0.10;0.10;;;;;;;;;;4987996;28;20037;-80
2022/07/24 13:54:22;;;;;;;0.10;0.10;;;;;;;;;;4987589;28;20046;-79
2022/07/24 13:56:48;;;;;;;0.10;0.10;;;;;;;;;;4991714;28;20018;-83
2022/07/24 13:59:14;;;;;;;0.10;0.10;;;;;;;;;;4991691;28;20053;-82
2022/07/24 14:01:40;;;;;;;0.10;0.10;;;;;;;;;;4991914;28;20445;-83
2022/07/24 14:04:08;;;;;;;0.10;0.10;;;;;;;;;;4991766;28;20023;-83
2022/07/24 14:06:35;;;;;;;0.10;0.10;;;;;;;;;;4991450;28;20035;-82
2022/07/24 14:09:01;;;;;;;0.10;0.10;;;;;;;;;;4991885;28;20022;-83
2022/07/24 14:11:27;;;;;;;0.10;0.10;;;;;;;;;;4991612;28;20033;-88
2022/07/24 14:13:54;;;;;;;0.10;0.10;;;;;;;;;;4987357;28;20041;-83
2022/07/24 14:16:21;;;;;;;0.10;0.10;;;;;;;;;;4985321;28;20058;-84
2022/07/24 14:18:47;;;;;;;0.10;0.10;;;;;;;;;;4988666;28;20038;-79
2022/07/24 14:21:14;;;;;;;0.10;0.10;;;;;;;;;;4985669;28;20030;-75
2022/07/24 14:23:40;;;;;;;0.10;0.10;;;;;;;;;;4973166;28;20061;-80
2022/07/24 14:26:06;;;;;;;0.10;0.10;;;;;;;;;;4975780;28;20031;-80
2022/07/24 14:28:32;;;;;;;0.10;0.10;;;;;;;;;;4975964;28;20034;-79
2022/07/24 14:30:59;;;;;;;0.10;0.10;;;;;;;;;;4975876;28;20081;-82
2022/07/24 14:33:25;;;;;;;0.10;0.10;;;;;;;;;;4975709;28;20414;-80
2022/07/24 14:35:51;;;;;;;0.10;0.10;;;;;;;;;;4975941;28;20035;-80
2022/07/24 14:38:17;;;;;;;0.20;0.20;;;;;;;;;;4975116;28;20551;-81
2022/07/24 14:40:43;;;;;;;0.15;0.15;;;;;;;;;;4975174;28;20026;-80
2022/07/24 14:43:09;;;;;;;0.10;0.10;;;;;;;;;;4976347;28;20348;-79